createdAt,value
2017-03-15T00:00:11.266Z,1029.38
2017-03-15T00:01:33.082Z,1029.41
2017-03-15T00:02:55.515Z,1029.47
2017-03-15T00:04:17.832Z,1029.48
2017-03-15T00:05:39.664Z,1029.43
2017-03-15T00:07:01.188Z,1029.39
2017-03-15T00:08:22.996Z,1029.36
2017-03-15T00:09:45.146Z,1029.44
2017-03-15T00:11:06.945Z,1029.42
2017-03-15T00:12:28.446Z,1029.47
2017-03-15T00:13:50.877Z,1029.44
2017-03-15T00:15:13.013Z,1029.47
2017-03-15T00:16:34.826Z,1029.48
2017-03-15T00:17:56.967Z,1029.45
2017-03-15T00:19:19.701Z,1029.44
2017-03-15T00:20:41.535Z,1029.42
2017-03-15T00:22:04.013Z,1029.44
2017-03-15T00:23:25.884Z,1029.41
2017-03-15T00:24:48.285Z,1029.48
2017-03-15T00:26:10.526Z,1029.46
2017-03-15T00:27:32.342Z,1029.45
2017-03-15T00:28:54.795Z,1029.45
2017-03-15T00:30:17.284Z,1029.45
2017-03-15T00:31:39.435Z,1029.48
2017-03-15T00:33:01.256Z,1029.46
2017-03-15T00:34:23.374Z,1029.51
2017-03-15T00:35:45.774Z,1029.48
2017-03-15T00:37:07.634Z,1029.34
2017-03-15T00:38:29.146Z,1029.35
2017-03-15T00:39:51.626Z,1029.35
2017-03-15T00:41:14.098Z,1029.29
2017-03-15T00:42:36.556Z,1029.25
2017-03-15T00:43:58.789Z,1029.32
2017-03-15T00:45:20.284Z,1029.34
2017-03-15T00:46:43.012Z,1029.34
2017-03-15T00:48:04.535Z,1029.36
2017-03-15T00:49:26.345Z,1029.36
2017-03-15T00:50:48.162Z,1029.38
2017-03-15T00:52:10.631Z,1029.39
2017-03-15T00:53:32.132Z,1029.35
2017-03-15T00:54:54.054Z,1029.33
2017-03-15T00:56:16.482Z,1029.32
2017-03-15T00:57:38.866Z,1029.32
2017-03-15T00:59:00.357Z,1029.3
2017-03-15T01:00:21.876Z,1029.33
2017-03-15T01:01:43.386Z,1029.33
2017-03-15T01:03:05.212Z,1029.3
2017-03-15T01:04:27.456Z,1029.23
2017-03-15T01:05:49.908Z,1029.21
2017-03-15T01:07:11.846Z,1029.21
2017-03-15T01:08:33.715Z,1029.16
2017-03-15T01:09:56.187Z,1029.19
2017-03-15T01:11:18.317Z,1029.2
2017-03-15T01:12:40.457Z,1029.25
2017-03-15T01:14:02.883Z,1029.26
2017-03-15T01:15:24.496Z,1029.24
2017-03-15T01:16:46.329Z,1029.26
2017-03-15T01:18:08.216Z,1029.26
2017-03-15T01:19:29.970Z,1029.2
2017-03-15T01:20:52.102Z,1029.26
2017-03-15T01:22:13.670Z,1029.29
2017-03-15T01:23:35.876Z,1029.33
2017-03-15T01:24:58.102Z,1029.23
2017-03-15T01:26:20.228Z,1029.21
2017-03-15T01:27:42.159Z,1029.22
2017-03-15T01:29:04.329Z,1029.22
2017-03-15T01:30:26.745Z,1029.2
2017-03-15T01:31:49.308Z,1029.18
2017-03-15T01:33:11.140Z,1029.17
2017-03-15T01:34:32.966Z,1029.08
2017-03-15T01:35:54.719Z,1029.06
2017-03-15T01:37:17.175Z,1029.06
2017-03-15T01:38:39.317Z,1029.05
2017-03-15T01:40:01.768Z,1029.05
2017-03-15T01:41:23.522Z,1029.03
2017-03-15T01:42:45.362Z,1029.14
2017-03-15T01:44:06.882Z,1029.18
2017-03-15T01:45:29.024Z,1029.11
2017-03-15T01:46:51.201Z,1029.11
2017-03-15T01:48:13.787Z,1029.21
2017-03-15T01:49:36.268Z,1029.26
2017-03-15T01:50:57.829Z,1029.19
2017-03-15T01:52:19.683Z,1029.2
2017-03-15T01:53:41.834Z,1029.26
2017-03-15T01:55:03.402Z,1029.3
2017-03-15T01:56:25.550Z,1029.33
2017-03-15T01:57:47.939Z,1029.28
2017-03-15T01:59:09.777Z,1029.22
2017-03-15T02:00:31.293Z,1029.23
2017-03-15T02:01:53.405Z,1029.21
2017-03-15T02:03:15.566Z,1029.19
2017-03-15T02:04:37.413Z,1029.21
2017-03-15T02:05:59.315Z,1029.22
2017-03-15T02:07:20.817Z,1029.13
2017-03-15T02:08:42.981Z,1029.19
2017-03-15T02:10:05.135Z,1029.19
2017-03-15T02:11:27.306Z,1029.12
2017-03-15T02:12:49.762Z,1029.19
2017-03-15T02:14:12.621Z,1029.18
2017-03-15T02:15:34.243Z,1029.25
2017-03-15T02:16:56.069Z,1029.2
2017-03-15T02:18:17.581Z,1029.18
2017-03-15T02:19:40.018Z,1029.22
2017-03-15T02:21:02.457Z,1029.2
2017-03-15T02:22:24.286Z,1029.21
2017-03-15T02:23:45.808Z,1029.27
2017-03-15T02:25:07.567Z,1029.29
2017-03-15T02:26:30.019Z,1029.27
2017-03-15T02:27:52.562Z,1029.32
2017-03-15T02:29:14.396Z,1029.31
2017-03-15T02:30:36.507Z,1029.33
2017-03-15T02:31:58.745Z,1029.31
2017-03-15T02:33:20.868Z,1029.38
2017-03-15T02:34:43.037Z,1029.42
2017-03-15T02:36:05.230Z,1029.4
2017-03-15T02:37:27.148Z,1029.35
2017-03-15T02:38:49.256Z,1029.42
2017-03-15T02:40:11.757Z,1029.45
2017-03-15T02:41:33.904Z,1029.35
2017-03-15T02:42:55.849Z,1029.4
2017-03-15T02:44:18.305Z,1029.35
2017-03-15T02:45:40.765Z,1029.36
2017-03-15T02:47:02.567Z,1029.44
2017-03-15T02:48:24.535Z,1029.51
2017-03-15T02:49:46.720Z,1029.48
2017-03-15T02:51:08.215Z,1029.48
2017-03-15T02:52:30.591Z,1029.46
2017-03-15T02:53:52.404Z,1029.45
2017-03-15T02:55:13.904Z,1029.48
2017-03-15T02:56:36.035Z,1029.43
2017-03-15T02:57:58.415Z,1029.46
2017-03-15T02:59:20.866Z,1029.5
2017-03-15T03:00:42.991Z,1029.54
2017-03-15T03:02:05.134Z,1029.47
2017-03-15T03:03:28.021Z,1029.52
2017-03-15T03:04:49.837Z,1029.5
2017-03-15T03:06:12.316Z,1029.5
2017-03-15T03:07:33.623Z,1029.52
2017-03-15T03:08:55.354Z,1029.48
2017-03-15T03:10:17.157Z,1029.48
2017-03-15T03:11:39.035Z,1029.48
2017-03-15T03:13:01.162Z,1029.52
2017-03-15T03:14:23.316Z,1029.6
2017-03-15T03:15:44.528Z,1029.61
2017-03-15T03:17:06.036Z,1029.53
2017-03-15T03:18:28.175Z,1029.63
2017-03-15T03:19:50.350Z,1029.61
2017-03-15T03:21:12.555Z,1029.57
2017-03-15T03:22:34.164Z,1029.51
2017-03-15T03:23:56.338Z,1029.54
2017-03-15T03:25:18.788Z,1029.55
2017-03-15T03:26:40.921Z,1029.51
2017-03-15T03:28:02.554Z,1029.55
2017-03-15T03:29:24.360Z,1029.54
2017-03-15T03:30:46.150Z,1029.56
2017-03-15T03:32:07.632Z,1029.59
2017-03-15T03:33:29.242Z,1029.55
2017-03-15T03:34:51.071Z,1029.57
2017-03-15T03:36:12.891Z,1029.64
2017-03-15T03:37:35.120Z,1029.61
2017-03-15T03:38:57.580Z,1029.66
2017-03-15T03:40:20.080Z,1029.66
2017-03-15T03:41:42.682Z,1029.61
2017-03-15T03:43:04.485Z,1029.62
2017-03-15T03:44:25.976Z,1029.6
2017-03-15T03:45:47.812Z,1029.69
2017-03-15T03:47:09.881Z,1029.65
2017-03-15T03:48:32.362Z,1029.6
2017-03-15T03:49:54.202Z,1029.57
2017-03-15T03:51:16.317Z,1029.6
2017-03-15T03:52:38.424Z,1029.63
2017-03-15T03:54:00.655Z,1029.6
2017-03-15T03:55:22.454Z,1029.66
2017-03-15T03:56:43.945Z,1029.68
2017-03-15T03:58:06.665Z,1029.71
2017-03-15T03:59:29.153Z,1029.74
2017-03-15T04:00:50.353Z,1029.76
2017-03-15T04:02:12.591Z,1029.74
2017-03-15T04:03:34.624Z,1029.74
2017-03-15T04:04:57.077Z,1029.77
2017-03-15T04:06:19.536Z,1029.78
2017-03-15T04:07:41.363Z,1029.84
2017-03-15T04:09:02.914Z,1029.83
2017-03-15T04:10:25.075Z,1029.79
2017-03-15T04:11:46.918Z,1029.79
2017-03-15T04:13:08.770Z,1029.82
2017-03-15T04:14:30.906Z,1029.87
2017-03-15T04:15:53.045Z,1029.89
2017-03-15T04:17:14.896Z,1029.92
2017-03-15T04:18:36.461Z,1029.95
2017-03-15T04:19:58.524Z,1029.93
2017-03-15T04:21:20.010Z,1029.95
2017-03-15T04:22:41.845Z,1029.92
2017-03-15T04:24:03.346Z,1029.93
2017-03-15T04:25:25.434Z,1029.97
2017-03-15T04:26:48.006Z,1029.99
2017-03-15T04:28:10.175Z,1029.99
2017-03-15T04:29:32.343Z,1029.93
2017-03-15T04:30:54.154Z,1030.01
2017-03-15T04:32:16.602Z,1030.02
2017-03-15T04:33:38.874Z,1030.06
2017-03-15T04:35:00.725Z,1030.06
2017-03-15T04:36:22.485Z,1030.06
2017-03-15T04:37:44.351Z,1030.07
2017-03-15T04:39:05.875Z,1030.05
2017-03-15T04:40:27.717Z,1030.07
2017-03-15T04:41:49.793Z,1030.09
2017-03-15T04:43:12.244Z,1030.05
2017-03-15T04:44:34.797Z,1030.06
2017-03-15T04:45:56.660Z,1030.11
2017-03-15T04:47:18.790Z,1030.1
2017-03-15T04:48:40.324Z,1030.08
2017-03-15T04:50:02.144Z,1030.08
2017-03-15T04:51:23.949Z,1030.06
2017-03-15T04:52:46.663Z,1029.97
2017-03-15T04:54:08.166Z,1029.98
2017-03-15T04:55:30.312Z,1029.99
2017-03-15T04:56:52.504Z,1029.99
2017-03-15T04:58:14.619Z,1030.04
2017-03-15T04:59:36.655Z,1030
2017-03-15T05:00:58.173Z,1030.11
2017-03-15T05:02:20.097Z,1030.13
2017-03-15T05:03:42.656Z,1030.13
2017-03-15T05:05:04.785Z,1030.12
2017-03-15T05:06:27.002Z,1030.09
2017-03-15T05:07:48.850Z,1030.06
2017-03-15T05:09:11.235Z,1030.05
2017-03-15T05:10:33.023Z,1030.01
2017-03-15T05:11:55.152Z,1029.96
2017-03-15T05:13:16.652Z,1029.99
2017-03-15T05:14:38.767Z,1030.04
2017-03-15T05:16:01.237Z,1030.09
2017-03-15T05:17:23.737Z,1030.06
2017-03-15T05:18:46.216Z,1030.02
2017-03-15T05:20:08.024Z,1030.04
2017-03-15T05:21:29.532Z,1030.05
2017-03-15T05:22:51.740Z,1030.07
2017-03-15T05:24:13.602Z,1030.08
2017-03-15T05:25:35.694Z,1030.04
2017-03-15T05:26:56.866Z,1030.02
2017-03-15T05:28:18.657Z,1030.01
2017-03-15T05:29:40.779Z,1030.03
2017-03-15T05:31:02.834Z,1030.05
2017-03-15T05:32:24.335Z,1030.1
2017-03-15T05:33:46.162Z,1030.17
2017-03-15T05:35:08.598Z,1030.14
2017-03-15T05:36:31.024Z,1030.18
2017-03-15T05:37:52.904Z,1030.18
2017-03-15T05:39:15.053Z,1030.15
2017-03-15T05:40:36.540Z,1030.18
2017-03-15T05:41:58.996Z,1030.23
2017-03-15T05:43:21.109Z,1030.26
2017-03-15T05:44:43.580Z,1030.24
2017-03-15T05:46:05.084Z,1030.26
2017-03-15T05:47:27.291Z,1030.3
2017-03-15T05:48:49.403Z,1030.27
2017-03-15T05:50:11.592Z,1030.27
2017-03-15T05:51:33.836Z,1030.31
2017-03-15T05:52:56.559Z,1030.35
2017-03-15T05:54:18.688Z,1030.4
2017-03-15T05:55:40.867Z,1030.46
2017-03-15T05:57:02.673Z,1030.45
2017-03-15T05:58:25.135Z,1030.48
2017-03-15T05:59:46.647Z,1030.5
2017-03-15T06:01:08.222Z,1030.52
2017-03-15T06:02:30.775Z,1030.55
2017-03-15T06:03:53.203Z,1030.55
2017-03-15T06:05:15.674Z,1030.59
2017-03-15T06:06:37.821Z,1030.59
2017-03-15T06:08:00.310Z,1030.63
2017-03-15T06:09:22.724Z,1030.63
2017-03-15T06:10:44.236Z,1030.62
2017-03-15T06:12:06.824Z,1030.62
2017-03-15T06:13:28.358Z,1030.62
2017-03-15T06:14:50.791Z,1030.64
2017-03-15T06:16:12.606Z,1030.72
2017-03-15T06:17:34.735Z,1030.79
2017-03-15T06:18:56.914Z,1030.76
2017-03-15T06:20:19.039Z,1030.74
2017-03-15T06:21:40.545Z,1030.76
2017-03-15T06:23:02.063Z,1030.77
2017-03-15T06:24:24.210Z,1030.77
2017-03-15T06:25:46.596Z,1030.76
2017-03-15T06:27:08.433Z,1030.78
2017-03-15T06:28:31.152Z,1030.85
2017-03-15T06:29:53.614Z,1030.85
2017-03-15T06:31:15.428Z,1030.92
2017-03-15T06:32:36.606Z,1030.96
2017-03-15T06:33:59.077Z,1030.96
2017-03-15T06:35:21.235Z,1030.91
2017-03-15T06:36:43.877Z,1030.87
2017-03-15T06:38:06.368Z,1030.91
2017-03-15T06:39:28.505Z,1030.89
2017-03-15T06:40:50.653Z,1030.91
2017-03-15T06:42:12.944Z,1030.97
2017-03-15T06:43:35.125Z,1030.97
2017-03-15T06:44:57.536Z,1030.98
2017-03-15T06:46:19.677Z,1031.02
2017-03-15T06:47:42.075Z,1031.01
2017-03-15T06:49:03.907Z,1031.09
2017-03-15T06:50:25.424Z,1031.09
2017-03-15T06:51:47.586Z,1031.02
2017-03-15T06:53:10.018Z,1031.09
2017-03-15T06:54:32.160Z,1031.16
2017-03-15T06:55:54.326Z,1031.13
2017-03-15T06:57:15.318Z,1031.17
2017-03-15T06:58:37.424Z,1031.14
2017-03-15T06:59:59.233Z,1031.07
2017-03-15T07:01:21.108Z,1031.11
2017-03-15T07:02:42.636Z,1031.12
2017-03-15T07:04:05.044Z,1031.13
2017-03-15T07:05:27.564Z,1031.22
2017-03-15T07:06:49.456Z,1031.28
2017-03-15T07:08:11.935Z,1031.26
2017-03-15T07:09:34.496Z,1031.25
2017-03-15T07:10:56.341Z,1031.31
2017-03-15T07:12:18.796Z,1031.26
2017-03-15T07:13:41.021Z,1031.29
2017-03-15T07:15:02.764Z,1031.32
2017-03-15T07:16:24.896Z,1031.28
2017-03-15T07:17:46.715Z,1031.26
2017-03-15T07:19:07.916Z,1031.31
2017-03-15T07:20:30.713Z,1031.24
2017-03-15T07:21:52.852Z,1031.28
2017-03-15T07:23:14.986Z,1031.23
2017-03-15T07:24:36.802Z,1031.29
2017-03-15T07:25:59.207Z,1031.24
2017-03-15T07:27:21.641Z,1031.2
2017-03-15T07:28:43.472Z,1031.24
2017-03-15T07:30:04.996Z,1031.27
2017-03-15T07:31:27.114Z,1031.31
2017-03-15T07:32:49.247Z,1031.29
2017-03-15T07:34:11.401Z,1031.33
2017-03-15T07:35:32.896Z,1031.32
2017-03-15T07:36:55.327Z,1031.4
2017-03-15T07:38:17.785Z,1031.4
2017-03-15T07:39:40.024Z,1031.38
2017-03-15T07:41:02.172Z,1031.32
2017-03-15T07:42:24.623Z,1031.3
2017-03-15T07:43:46.755Z,1031.32
2017-03-15T07:45:09.220Z,1031.3
2017-03-15T07:46:31.057Z,1031.3
2017-03-15T07:47:53.309Z,1031.33
2017-03-15T07:49:15.174Z,1031.37
2017-03-15T07:50:37.557Z,1031.37
2017-03-15T07:51:59.398Z,1031.41
2017-03-15T07:53:21.468Z,1031.4
2017-03-15T07:54:43.285Z,1031.44
2017-03-15T07:56:05.116Z,1031.4
2017-03-15T07:57:26.643Z,1031.42
2017-03-15T07:58:49.034Z,1031.43
2017-03-15T08:00:10.856Z,1031.42
2017-03-15T08:01:32.664Z,1031.49
2017-03-15T08:02:55.102Z,1031.53
2017-03-15T08:04:17.203Z,1031.55
2017-03-15T08:05:38.725Z,1031.62
2017-03-15T08:07:00.863Z,1031.61
2017-03-15T08:08:23.244Z,1031.63
2017-03-15T08:09:45.423Z,1031.61
2017-03-15T08:11:07.297Z,1031.62
2017-03-15T08:12:29.756Z,1031.65
2017-03-15T08:13:51.345Z,1031.67
2017-03-15T08:15:14.136Z,1031.69
2017-03-15T08:16:36.045Z,1031.72
2017-03-15T08:17:58.291Z,1031.73
2017-03-15T08:19:20.477Z,1031.73
2017-03-15T08:20:43.018Z,1031.67
2017-03-15T08:22:05.147Z,1031.75
2017-03-15T08:23:27.294Z,1031.76
2017-03-15T08:24:49.768Z,1031.72
2017-03-15T08:26:12.228Z,1031.74
2017-03-15T08:27:34.063Z,1031.73
2017-03-15T08:28:56.201Z,1031.74
2017-03-15T08:30:17.396Z,1031.76
2017-03-15T08:31:39.587Z,1031.79
2017-03-15T08:33:01.761Z,1031.72
2017-03-15T08:34:23.782Z,1031.72
2017-03-15T08:35:45.274Z,1031.72
2017-03-15T08:37:07.486Z,1031.68
2017-03-15T08:38:29.302Z,1031.71
2017-03-15T08:39:51.220Z,1031.73
2017-03-15T08:41:13.365Z,1031.79
2017-03-15T08:42:36.186Z,1031.75
2017-03-15T08:43:58.342Z,1031.82
2017-03-15T08:45:20.706Z,1031.77
2017-03-15T08:46:42.856Z,1031.81
2017-03-15T08:48:04.967Z,1031.84
2017-03-15T08:49:27.160Z,1031.8
2017-03-15T08:50:48.997Z,1031.81
2017-03-15T08:52:11.476Z,1031.8
2017-03-15T08:53:33.658Z,1031.87
2017-03-15T08:54:55.798Z,1031.83
2017-03-15T08:56:18.125Z,1031.87
2017-03-15T08:57:40.599Z,1031.85
2017-03-15T08:59:02.746Z,1031.88
2017-03-15T09:00:25.195Z,1031.96
2017-03-15T09:01:47.027Z,1031.93
2017-03-15T09:03:09.487Z,1032
2017-03-15T09:04:32.196Z,1032.04
2017-03-15T09:05:54.390Z,1032.04
2017-03-15T09:07:16.742Z,1032.01
2017-03-15T09:08:39.224Z,1032
2017-03-15T09:10:01.930Z,1032.02
2017-03-15T09:11:23.787Z,1032.02
2017-03-15T09:12:46.393Z,1032.03
2017-03-15T09:14:08.545Z,1032.1
2017-03-15T09:15:30.963Z,1032.08
2017-03-15T09:16:52.126Z,1032.06
2017-03-15T09:18:14.258Z,1032.07
2017-03-15T09:19:35.112Z,1032.05
2017-03-15T09:20:57.524Z,1032.06
2017-03-15T09:22:20.027Z,1032.1
2017-03-15T09:23:41.986Z,1032.13
2017-03-15T09:25:04.116Z,1032.13
2017-03-15T09:26:26.346Z,1032.17
2017-03-15T09:27:48.169Z,1032.19
2017-03-15T09:29:10.514Z,1032.21
2017-03-15T09:30:32.345Z,1032.12
2017-03-15T09:31:54.427Z,1032.14
2017-03-15T09:33:16.893Z,1032.16
2017-03-15T09:34:39.093Z,1032.17
2017-03-15T09:36:01.693Z,1032.18
2017-03-15T09:37:23.798Z,1032.2
2017-03-15T09:38:45.955Z,1032.27
2017-03-15T09:40:07.456Z,1032.26
2017-03-15T09:41:29.087Z,1032.27
2017-03-15T09:42:51.044Z,1032.3
2017-03-15T09:44:13.504Z,1032.27
2017-03-15T09:45:35.672Z,1032.23
2017-03-15T09:46:57.193Z,1032.19
2017-03-15T09:48:19.644Z,1032.28
2017-03-15T09:49:41.483Z,1032.27
2017-03-15T09:51:03.985Z,1032.3
2017-03-15T09:52:26.203Z,1032.32
2017-03-15T09:53:48.566Z,1032.26
2017-03-15T09:55:10.714Z,1032.35
2017-03-15T09:56:32.891Z,1032.32
2017-03-15T09:57:54.745Z,1032.43
2017-03-15T09:59:17.304Z,1032.4
2017-03-15T10:00:39.130Z,1032.35
2017-03-15T10:02:01.559Z,1032.34
2017-03-15T10:03:24.033Z,1032.34
2017-03-15T10:04:46.464Z,1032.31
2017-03-15T10:06:08.927Z,1032.32
2017-03-15T10:07:31.140Z,1032.38
2017-03-15T10:08:52.976Z,1032.32
2017-03-15T10:10:15.105Z,1032.36
2017-03-15T10:11:37.325Z,1032.35
2017-03-15T10:12:59.519Z,1032.35
2017-03-15T10:14:21.952Z,1032.35
2017-03-15T10:15:43.750Z,1032.31
2017-03-15T10:17:04.645Z,1032.38
2017-03-15T10:18:26.238Z,1032.33
2017-03-15T10:19:48.374Z,1032.37
2017-03-15T10:21:11.068Z,1032.37
2017-03-15T10:22:33.225Z,1032.39
2017-03-15T10:23:55.393Z,1032.37
2017-03-15T10:25:17.562Z,1032.35
2017-03-15T10:26:40.114Z,1032.36
2017-03-15T10:28:02.557Z,1032.38
2017-03-15T10:29:24.714Z,1032.34
2017-03-15T10:30:47.184Z,1032.32
2017-03-15T10:32:09.259Z,1032.34
2017-03-15T10:33:31.381Z,1032.33
2017-03-15T10:34:52.893Z,1032.3
2017-03-15T10:36:15.021Z,1032.31
2017-03-15T10:37:37.823Z,1032.34
2017-03-15T10:38:59.976Z,1032.35
2017-03-15T10:40:22.126Z,1032.36
2017-03-15T10:41:44.674Z,1032.4
2017-03-15T10:43:07.480Z,1032.37
2017-03-15T10:44:29.646Z,1032.36
2017-03-15T10:45:52.082Z,1032.36
2017-03-15T10:47:14.211Z,1032.31
2017-03-15T10:48:36.266Z,1032.42
2017-03-15T10:49:57.774Z,1032.39
2017-03-15T10:51:19.276Z,1032.37
2017-03-15T10:52:41.396Z,1032.38
2017-03-15T10:54:04.106Z,1032.44
2017-03-15T10:55:26.555Z,1032.47
2017-03-15T10:56:48.158Z,1032.53
2017-03-15T10:58:10.424Z,1032.45
2017-03-15T10:59:32.843Z,1032.37
2017-03-15T11:00:54.685Z,1032.33
2017-03-15T11:02:16.821Z,1032.43
2017-03-15T11:03:38.946Z,1032.42
2017-03-15T11:05:01.818Z,1032.49
2017-03-15T11:06:23.965Z,1032.48
2017-03-15T11:07:46.501Z,1032.47
2017-03-15T11:09:08.354Z,1032.51
2017-03-15T11:10:30.433Z,1032.52
2017-03-15T11:11:52.563Z,1032.47
2017-03-15T11:13:14.122Z,1032.4
2017-03-15T11:14:35.947Z,1032.38
2017-03-15T11:15:58.675Z,1032.34
2017-03-15T11:17:20.786Z,1032.39
2017-03-15T11:18:42.949Z,1032.4
2017-03-15T11:20:04.925Z,1032.38
2017-03-15T11:21:27.007Z,1032.29
2017-03-15T11:22:49.478Z,1032.31
2017-03-15T11:24:11.515Z,1032.25
2017-03-15T11:25:33.783Z,1032.25
2017-03-15T11:26:56.084Z,1032.27
2017-03-15T11:28:18.576Z,1032.33
2017-03-15T11:29:40.704Z,1032.25
2017-03-15T11:31:02.558Z,1032.33
2017-03-15T11:32:25.659Z,1032.27
2017-03-15T11:33:49.684Z,1032.33
2017-03-15T11:35:11.835Z,1032.31
2017-03-15T11:36:34.129Z,1032.29
2017-03-15T11:37:56.211Z,1032.28
2017-03-15T11:39:17.817Z,1032.22
2017-03-15T11:40:39.965Z,1032.24
2017-03-15T11:42:02.623Z,1032.19
2017-03-15T11:43:25.005Z,1032.21
2017-03-15T11:44:47.139Z,1032.19
2017-03-15T11:46:09.283Z,1032.18
2017-03-15T11:47:30.782Z,1032.15
2017-03-15T11:48:52.916Z,1032.19
2017-03-15T11:50:15.075Z,1032.19
2017-03-15T11:51:37.009Z,1032.23
2017-03-15T11:52:59.238Z,1032.13
2017-03-15T11:54:21.064Z,1032.08
2017-03-15T11:55:43.617Z,1032.07
2017-03-15T11:57:05.513Z,1032.1
2017-03-15T11:58:27.653Z,1032.06
2017-03-15T11:59:49.184Z,1031.97
2017-03-15T12:01:11.387Z,1031.97
2017-03-15T12:02:33.668Z,1031.99
2017-03-15T12:03:56.112Z,1032.03
2017-03-15T12:05:18.644Z,1032.02
2017-03-15T12:06:41.115Z,1031.99
2017-03-15T12:08:03.717Z,1032.01
2017-03-15T12:09:26.192Z,1032.12
2017-03-15T12:10:48.987Z,1032.05
2017-03-15T12:12:11.433Z,1032.1
2017-03-15T12:13:33.899Z,1032.15
2017-03-15T12:14:56.625Z,1032.03
2017-03-15T12:16:19.435Z,1032.05
2017-03-15T12:17:41.977Z,1032.09
2017-03-15T12:19:04.119Z,1032.11
2017-03-15T12:20:26.251Z,1032.1
2017-03-15T12:21:48.323Z,1032.1
2017-03-15T12:23:11.359Z,1032.05
2017-03-15T12:24:36.590Z,1031.98
2017-03-15T12:25:58.945Z,1032.04
2017-03-15T12:27:21.374Z,1032.03
2017-03-15T12:28:42.875Z,1032.02
2017-03-15T12:30:04.363Z,1032.03
2017-03-15T12:31:26.560Z,1031.98
2017-03-15T12:32:48.995Z,1032.01
2017-03-15T12:34:10.824Z,1031.94
2017-03-15T12:36:05.792Z,1031.97
2017-03-15T12:37:27.949Z,1032
2017-03-15T12:38:50.696Z,1032.02
2017-03-15T12:40:12.503Z,1032.06
2017-03-15T12:41:34.304Z,1032.01
2017-03-15T12:42:57.192Z,1031.98
2017-03-15T12:44:19.381Z,1031.96
2017-03-15T12:45:41.215Z,1031.92
2017-03-15T12:47:03.012Z,1031.9
2017-03-15T12:48:25.514Z,1031.96
2017-03-15T12:49:47.805Z,1031.91
2017-03-15T12:51:10.070Z,1031.84
2017-03-15T12:52:31.879Z,1031.88
2017-03-15T12:53:54.264Z,1031.87
2017-03-15T12:55:16.390Z,1031.82
2017-03-15T12:56:38.189Z,1031.86
2017-03-15T12:58:32.123Z,1031.84
2017-03-15T13:00:20.214Z,1031.9
2017-03-15T13:01:42.448Z,1031.9
2017-03-15T13:03:04.264Z,1031.87
2017-03-15T13:04:26.203Z,1031.85
2017-03-15T13:05:48.694Z,1031.83
2017-03-15T13:07:10.885Z,1031.88
2017-03-15T13:08:32.706Z,1031.81
2017-03-15T13:09:55.283Z,1031.79
2017-03-15T13:11:17.990Z,1031.87
2017-03-15T13:13:12.107Z,1031.9
2017-03-15T13:14:34.254Z,1031.9
2017-03-15T13:15:56.400Z,1031.87
2017-03-15T13:17:19.215Z,1031.87
2017-03-15T13:18:41.680Z,1031.9
2017-03-15T13:20:03.503Z,1031.84
2017-03-15T13:21:26.201Z,1031.87
2017-03-15T13:22:48.482Z,1031.88
2017-03-15T13:24:10.354Z,1031.87
2017-03-15T13:25:32.793Z,1031.82
2017-03-15T13:26:55.226Z,1031.77
2017-03-15T13:28:17.462Z,1031.88
2017-03-15T13:29:39.705Z,1031.81
2017-03-15T13:31:02.126Z,1031.77
2017-03-15T13:32:23.877Z,1031.79
2017-03-15T13:33:45.793Z,1031.85
2017-03-15T13:35:07.708Z,1031.86
2017-03-15T13:36:30.347Z,1031.86
2017-03-15T13:37:52.756Z,1031.83
2017-03-15T13:39:14.906Z,1031.89
2017-03-15T13:40:37.372Z,1031.87
2017-03-15T13:41:59.527Z,1031.79
2017-03-15T13:43:21.905Z,1031.89
2017-03-15T13:44:44.050Z,1031.93
2017-03-15T13:46:05.577Z,1031.89
2017-03-15T13:47:28.048Z,1031.89
2017-03-15T13:48:50.915Z,1031.83
2017-03-15T13:50:12.768Z,1031.88
2017-03-15T13:51:34.934Z,1031.82
2017-03-15T13:52:57.362Z,1031.82
2017-03-15T13:54:19.800Z,1031.85
2017-03-15T13:55:41.944Z,1031.82
2017-03-15T13:57:03.842Z,1031.84
2017-03-15T13:58:25.351Z,1031.84
2017-03-15T13:59:47.465Z,1031.84
2017-03-15T14:01:09.593Z,1031.79
2017-03-15T14:02:32.054Z,1031.74
2017-03-15T14:03:54.229Z,1031.78
2017-03-15T14:05:16.738Z,1031.81
2017-03-15T14:06:38.904Z,1031.78
2017-03-15T14:08:01.085Z,1031.7
2017-03-15T14:09:22.903Z,1031.73
2017-03-15T14:10:45.334Z,1031.77
2017-03-15T14:12:07.473Z,1031.64
2017-03-15T14:13:29.395Z,1031.78
2017-03-15T14:14:51.855Z,1031.78
2017-03-15T14:16:14.283Z,1031.71
2017-03-15T14:17:36.719Z,1031.73
2017-03-15T14:18:58.935Z,1031.66
2017-03-15T14:20:20.813Z,1031.7
2017-03-15T14:21:42.947Z,1031.69
2017-03-15T14:23:05.084Z,1031.68
2017-03-15T14:24:27.572Z,1031.62
2017-03-15T14:25:49.775Z,1031.7
2017-03-15T14:27:12.204Z,1031.64
2017-03-15T14:28:34.662Z,1031.6
2017-03-15T14:29:56.789Z,1031.6
2017-03-15T14:31:18.607Z,1031.58
2017-03-15T14:32:41.094Z,1031.66
2017-03-15T14:34:02.890Z,1031.67
2017-03-15T14:35:25.055Z,1031.65
2017-03-15T14:36:46.982Z,1031.56
2017-03-15T14:38:09.426Z,1031.58
2017-03-15T14:39:31.561Z,1031.59
2017-03-15T14:40:54.092Z,1031.63
2017-03-15T14:42:16.215Z,1031.58
2017-03-15T14:43:39.067Z,1031.6
2017-03-15T14:45:01.528Z,1031.61
2017-03-15T14:46:23.122Z,1031.57
2017-03-15T14:47:44.942Z,1031.54
2017-03-15T14:49:07.645Z,1031.56
2017-03-15T14:50:30.183Z,1031.55
2017-03-15T14:51:52.412Z,1031.53
2017-03-15T14:53:14.304Z,1031.57
2017-03-15T14:54:36.534Z,1031.48
2017-03-15T14:55:59.023Z,1031.56
2017-03-15T14:57:20.875Z,1031.51
2017-03-15T14:58:42.801Z,1031.44
2017-03-15T15:00:04.583Z,1031.51
2017-03-15T15:01:27.029Z,1031.47
2017-03-15T15:02:49.512Z,1031.44
2017-03-15T15:04:12.048Z,1031.49
2017-03-15T15:05:34.619Z,1031.49
2017-03-15T15:06:57.156Z,1031.49
2017-03-15T15:08:19.464Z,1031.48
2017-03-15T15:09:41.910Z,1031.43
2017-03-15T15:11:04.608Z,1031.43
2017-03-15T15:12:26.574Z,1031.43
2017-03-15T15:13:48.455Z,1031.47
2017-03-15T15:15:10.619Z,1031.45
2017-03-15T15:16:33.387Z,1031.54
2017-03-15T15:17:55.536Z,1031.55
2017-03-15T15:19:49.987Z,1031.5
2017-03-15T15:21:12.574Z,1031.48
2017-03-15T15:22:34.672Z,1031.49
2017-03-15T15:23:56.967Z,1031.48
2017-03-15T15:25:19.427Z,1031.48
2017-03-15T15:26:42.134Z,1031.44
2017-03-15T15:28:03.967Z,1031.43
2017-03-15T15:29:26.118Z,1031.42
2017-03-15T15:30:48.648Z,1031.44
2017-03-15T15:32:11.231Z,1031.49
2017-03-15T15:33:33.024Z,1031.5
2017-03-15T15:34:54.579Z,1031.4
2017-03-15T15:36:16.406Z,1031.47
2017-03-15T15:37:38.590Z,1031.43
2017-03-15T15:39:00.432Z,1031.43
2017-03-15T15:40:22.587Z,1031.48
2017-03-15T15:41:44.438Z,1031.41
2017-03-15T15:43:07.204Z,1031.5
2017-03-15T15:44:29.365Z,1031.5
2017-03-15T15:45:51.825Z,1031.49
2017-03-15T15:47:14.321Z,1031.5
2017-03-15T15:48:38.252Z,1031.43
2017-03-15T15:50:00.403Z,1031.41
2017-03-15T15:51:22.523Z,1031.46
2017-03-15T15:52:44.734Z,1031.48
2017-03-15T15:54:06.798Z,1031.47
2017-03-15T15:55:28.873Z,1031.51
2017-03-15T15:56:51.346Z,1031.47
2017-03-15T15:58:13.566Z,1031.46
2017-03-15T15:59:35.841Z,1031.47
2017-03-15T16:00:58.264Z,1031.44
2017-03-15T16:02:20.393Z,1031.44
2017-03-15T16:03:43.052Z,1031.5
2017-03-15T16:05:05.500Z,1031.44
2017-03-15T16:06:27.441Z,1031.45
2017-03-15T16:07:49.643Z,1031.37
2017-03-15T16:09:11.768Z,1031.4
2017-03-15T16:10:34.206Z,1031.41
2017-03-15T16:11:56.691Z,1031.37
2017-03-15T16:13:19.296Z,1031.4
2017-03-15T16:14:41.586Z,1031.36
2017-03-15T16:16:04.037Z,1031.36
2017-03-15T16:17:26.167Z,1031.32
2017-03-15T16:18:48.641Z,1031.3
2017-03-15T16:20:11.094Z,1031.28
2017-03-15T16:21:34.716Z,1031.29
2017-03-15T16:22:56.578Z,1031.31
2017-03-15T16:24:19.053Z,1031.29
2017-03-15T16:25:41.245Z,1031.32
2017-03-15T16:27:04.044Z,1031.27
2017-03-15T16:28:26.553Z,1031.31
2017-03-15T16:29:49.003Z,1031.29
2017-03-15T16:31:11.452Z,1031.25
2017-03-15T16:32:33.592Z,1031.27
2017-03-15T16:33:55.409Z,1031.24
2017-03-15T16:35:17.254Z,1031.25
2017-03-15T16:36:39.721Z,1031.31
2017-03-15T16:38:02.242Z,1031.27
2017-03-15T16:39:23.768Z,1031.29